createdAt,value
2023-02-14T00:01:13.418Z,6.96
2023-02-14T00:03:40.765Z,6.96
2023-02-14T00:06:10.482Z,6.96
2023-02-14T00:08:37.576Z,6.97
2023-02-14T00:11:05.571Z,6.98
2023-02-14T00:13:32.847Z,6.97
2023-02-14T00:15:59.983Z,6.97
2023-02-14T00:18:45.792Z,6.98
2023-02-14T00:21:13.070Z,7.00
2023-02-14T00:23:40.214Z,7.04
2023-02-14T00:26:15.021Z,7.10
2023-02-14T00:28:42.187Z,7.12
2023-02-14T00:31:09.400Z,7.15
2023-02-14T00:33:36.851Z,7.16
2023-02-14T00:36:05.746Z,7.18
2023-02-14T00:38:33.778Z,7.20
2023-02-14T00:41:01.008Z,7.18
2023-02-14T00:43:28.133Z,7.17
2023-02-14T00:45:55.101Z,7.15
2023-02-14T00:48:22.029Z,7.15
2023-02-14T00:50:48.932Z,7.15
2023-02-14T00:53:15.846Z,7.15
2023-02-14T00:55:46.599Z,7.17
2023-02-14T00:58:13.680Z,7.18
2023-02-14T01:00:40.696Z,7.20
2023-02-14T01:03:07.605Z,7.20
2023-02-14T01:05:34.550Z,7.16
2023-02-14T01:08:02.244Z,7.14
2023-02-14T01:10:29.249Z,7.16
2023-02-14T01:12:56.169Z,7.15
2023-02-14T01:15:23.309Z,7.17
2023-02-14T01:17:50.359Z,7.21
2023-02-14T01:20:17.367Z,7.23
2023-02-14T01:22:44.291Z,7.24
2023-02-14T01:25:11.179Z,7.24
2023-02-14T01:27:38.143Z,7.21
2023-02-14T01:30:06.508Z,7.21
2023-02-14T01:32:33.882Z,7.22
2023-02-14T01:35:00.937Z,7.18
2023-02-14T01:37:29.882Z,7.13
2023-02-14T01:39:56.796Z,7.08
2023-02-14T01:42:23.771Z,7.06
2023-02-14T01:44:56.856Z,7.05
2023-02-14T01:47:25.396Z,7.03
2023-02-14T01:49:59.740Z,7.02
2023-02-14T01:52:35.150Z,7.02
2023-02-14T01:55:08.752Z,7.02
2023-02-14T01:57:49.642Z,7.04
2023-02-14T02:00:35.579Z,7.06
2023-02-14T02:03:04.590Z,7.04
2023-02-14T02:05:31.764Z,7.02
2023-02-14T02:08:01.529Z,7.01
2023-02-14T02:10:29.396Z,7.00
2023-02-14T02:13:02.339Z,6.99
2023-02-14T02:15:32.572Z,6.98
2023-02-14T02:18:24.057Z,6.96
2023-02-14T02:21:18.507Z,6.93
2023-02-14T02:24:09.752Z,6.95
2023-02-14T02:27:13.938Z,6.99
2023-02-14T02:30:02.236Z,7.03
2023-02-14T02:32:58.336Z,7.04
2023-02-14T02:36:07.156Z,7.08
2023-02-14T02:38:55.553Z,7.12
2023-02-14T02:41:37.796Z,7.13
2023-02-14T02:44:31.808Z,7.15
2023-02-14T02:47:52.791Z,7.17
2023-02-14T02:50:51.679Z,7.16
2023-02-14T02:53:49.316Z,7.12
2023-02-14T02:56:46.900Z,7.12
2023-02-14T02:59:24.413Z,7.09
2023-02-14T03:02:05.254Z,7.07
2023-02-14T03:04:54.838Z,7.05
2023-02-14T03:07:35.967Z,7.06
2023-02-14T03:10:16.721Z,7.08
2023-02-14T03:13:16.165Z,7.05
2023-02-14T03:16:20.214Z,7.00
2023-02-14T03:19:24.237Z,7.01
2023-02-14T03:22:37.584Z,7.05
2023-02-14T03:25:54.536Z,7.06
2023-02-14T03:28:45.621Z,7.08
2023-02-14T03:31:59.185Z,7.08
2023-02-14T03:34:41.050Z,7.11
2023-02-14T03:37:46.710Z,7.11
2023-02-14T03:40:34.071Z,7.13
2023-02-14T03:43:23.925Z,7.13
2023-02-14T03:46:27.929Z,7.15
2023-02-14T03:48:58.873Z,7.16
2023-02-14T03:51:27.508Z,7.16
2023-02-14T03:53:58.190Z,7.17
2023-02-14T03:56:50.258Z,7.17
2023-02-14T03:59:24.593Z,7.16
2023-02-14T04:02:12.889Z,7.16
2023-02-14T04:04:48.128Z,7.12
2023-02-14T04:07:22.571Z,7.07
2023-02-14T04:09:49.828Z,7.07
2023-02-14T04:12:21.834Z,7.10
2023-02-14T04:14:53.640Z,7.11
2023-02-14T04:17:38.658Z,7.11
2023-02-14T04:20:06.686Z,7.11
2023-02-14T04:22:33.553Z,7.11
2023-02-14T04:25:00.432Z,7.13
2023-02-14T04:27:27.367Z,7.13
2023-02-14T04:29:54.309Z,7.13
2023-02-14T04:32:22.742Z,7.11
2023-02-14T04:34:49.783Z,7.12
2023-02-14T04:37:19.343Z,7.13
2023-02-14T04:39:46.521Z,7.14
2023-02-14T04:42:14.406Z,7.16
2023-02-14T04:44:41.345Z,7.18
2023-02-14T04:47:09.073Z,7.17
2023-02-14T04:49:36.549Z,7.16
2023-02-14T04:52:04.811Z,7.15
2023-02-14T04:54:32.010Z,7.15
2023-02-14T04:56:59.123Z,7.14
2023-02-14T04:59:26.504Z,7.15
2023-02-14T05:01:54.207Z,7.17
2023-02-14T05:04:21.488Z,7.18
2023-02-14T05:06:48.846Z,7.21
2023-02-14T05:09:15.765Z,7.22
2023-02-14T05:11:42.707Z,7.24
2023-02-14T05:14:09.628Z,7.25
2023-02-14T05:16:36.827Z,7.25
2023-02-14T05:19:03.871Z,7.24
2023-02-14T05:21:33.089Z,7.22
2023-02-14T05:24:03.033Z,7.16
2023-02-14T05:26:30.703Z,7.10
2023-02-14T05:28:57.826Z,7.08
2023-02-14T05:31:25.194Z,7.08
2023-02-14T05:33:52.170Z,7.06
2023-02-14T05:36:20.033Z,7.09
2023-02-14T05:38:46.945Z,7.12
2023-02-14T05:41:13.846Z,7.12
2023-02-14T05:43:40.738Z,7.15
2023-02-14T05:46:07.762Z,7.17
2023-02-14T05:48:34.739Z,7.21
2023-02-14T05:51:07.341Z,7.22
2023-02-14T05:53:34.521Z,7.19
2023-02-14T05:56:02.201Z,7.19
2023-02-14T05:58:29.122Z,7.20
2023-02-14T06:01:00.472Z,7.21
2023-02-14T06:03:27.705Z,7.19
2023-02-14T06:05:54.629Z,7.16
2023-02-14T06:08:21.527Z,7.17
2023-02-14T06:10:48.387Z,7.19
2023-02-14T06:13:15.318Z,7.17
2023-02-14T06:15:44.859Z,7.13
2023-02-14T06:18:12.051Z,7.14
2023-02-14T06:20:38.998Z,7.17
2023-02-14T06:23:05.930Z,7.19
2023-02-14T06:25:32.954Z,7.21
2023-02-14T06:28:00.131Z,7.21
2023-02-14T06:30:28.110Z,7.19
2023-02-14T06:32:55.268Z,7.15
2023-02-14T06:35:22.534Z,7.13
2023-02-14T06:37:49.572Z,7.14
2023-02-14T06:40:16.576Z,7.14
2023-02-14T06:42:44.371Z,7.12
2023-02-14T06:45:11.543Z,7.13
2023-02-14T06:47:38.471Z,7.08
2023-02-14T06:50:06.624Z,7.02
2023-02-14T06:52:34.214Z,6.99
2023-02-14T06:55:01.184Z,6.97
2023-02-14T06:57:28.399Z,6.97
2023-02-14T06:59:55.341Z,6.95
2023-02-14T07:02:24.907Z,6.94
2023-02-14T07:04:52.304Z,6.94
2023-02-14T07:07:19.372Z,6.99
2023-02-14T07:09:46.460Z,7.06
2023-02-14T07:12:13.474Z,7.11
2023-02-14T07:14:40.431Z,7.12
2023-02-14T07:17:07.462Z,7.13
2023-02-14T07:19:35.440Z,7.15
2023-02-14T07:22:02.558Z,7.17
2023-02-14T07:24:29.638Z,7.17
2023-02-14T07:26:56.669Z,7.15
2023-02-14T07:29:23.705Z,7.17
2023-02-14T07:31:50.845Z,7.21
2023-02-14T07:34:17.791Z,7.24
2023-02-14T07:36:44.942Z,7.28
2023-02-14T07:39:11.903Z,7.30
2023-02-14T07:41:39.251Z,7.32
2023-02-14T07:44:06.261Z,7.35
2023-02-14T07:46:33.513Z,7.34
2023-02-14T07:49:00.543Z,7.33
2023-02-14T07:51:27.625Z,7.36
2023-02-14T07:53:54.678Z,7.39
2023-02-14T07:56:21.857Z,7.43
2023-02-14T07:58:49.935Z,7.45
2023-02-14T08:01:17.716Z,7.49
2023-02-14T08:03:46.960Z,7.47
2023-02-14T08:06:14.142Z,7.47
2023-02-14T08:08:41.204Z,7.48
2023-02-14T08:11:08.359Z,7.51
2023-02-14T08:13:35.481Z,7.54
2023-02-14T08:16:21.299Z,7.54
2023-02-14T08:18:48.422Z,7.58
2023-02-14T08:21:17.180Z,7.61
2023-02-14T08:23:45.617Z,7.63
2023-02-14T08:26:13.579Z,7.66
2023-02-14T08:28:40.566Z,7.70
2023-02-14T08:31:07.519Z,7.77
2023-02-14T08:33:34.583Z,7.84
2023-02-14T08:36:02.669Z,7.88
2023-02-14T08:38:29.866Z,7.93
2023-02-14T08:41:05.854Z,7.97
2023-02-14T08:43:34.629Z,7.99
2023-02-14T08:46:02.749Z,8.01
2023-02-14T08:48:30.092Z,8.03
2023-02-14T08:50:57.538Z,8.05
2023-02-14T08:53:24.800Z,8.09
2023-02-14T08:55:52.428Z,8.17
2023-02-14T08:58:19.489Z,8.21
2023-02-14T09:00:46.523Z,8.27
2023-02-14T09:03:13.514Z,8.36
2023-02-14T09:05:40.522Z,8.46
2023-02-14T09:08:07.828Z,8.52
2023-02-14T09:10:34.931Z,8.56
2023-02-14T09:13:02.410Z,8.60
2023-02-14T09:15:29.871Z,8.60
2023-02-14T09:17:56.834Z,8.62
2023-02-14T09:20:24.070Z,8.56
2023-02-14T09:22:51.582Z,8.51
2023-02-14T09:25:18.532Z,8.44
2023-02-14T09:27:45.691Z,8.45
2023-02-14T09:30:13.822Z,8.44
2023-02-14T09:32:40.825Z,8.49
2023-02-14T09:35:08.152Z,8.58
2023-02-14T09:37:53.587Z,8.64
2023-02-14T09:40:21.274Z,8.71
2023-02-14T09:43:04.496Z,8.77
2023-02-14T09:45:33.732Z,8.82
2023-02-14T09:48:08.581Z,8.82
2023-02-14T09:51:04.971Z,8.84
2023-02-14T09:54:15.141Z,8.93
2023-02-14T09:57:18.397Z,9.02
2023-02-14T10:00:11.139Z,9.11
2023-02-14T10:02:53.471Z,9.14
2023-02-14T10:05:30.798Z,9.15
2023-02-14T10:08:18.993Z,9.10
2023-02-14T10:11:02.545Z,9.10
2023-02-14T10:13:43.134Z,8.96
2023-02-14T10:16:34.406Z,8.96
2023-02-14T10:19:07.269Z,9.01
2023-02-14T10:21:44.611Z,8.98
2023-02-14T10:24:27.880Z,8.96
2023-02-14T10:29:45.465Z,9.03
2023-02-14T10:32:15.547Z,9.07
2023-02-14T10:34:48.513Z,9.11
2023-02-14T10:37:20.807Z,9.13
2023-02-14T10:40:05.317Z,9.13
2023-02-14T10:43:03.399Z,9.06
2023-02-14T10:45:50.613Z,8.99
2023-02-14T10:49:00.764Z,8.99
2023-02-14T10:51:46.769Z,9.05
2023-02-14T10:54:28.150Z,9.05
2023-02-14T10:57:04.609Z,9.09
2023-02-14T10:59:42.633Z,9.11
2023-02-14T11:02:15.316Z,9.11
2023-02-14T11:04:44.271Z,9.06
2023-02-14T11:07:15.977Z,9.03
2023-02-14T11:09:43.291Z,9.02
2023-02-14T11:12:10.781Z,8.99
2023-02-14T11:14:40.052Z,8.97
2023-02-14T11:17:31.107Z,9.01
2023-02-14T11:20:09.586Z,9.05
2023-02-14T11:22:36.479Z,9.02
2023-02-14T11:25:20.263Z,8.95
2023-02-14T11:28:00.545Z,8.90
2023-02-14T11:30:35.456Z,8.83
2023-02-14T11:33:04.242Z,8.78
2023-02-14T11:35:34.988Z,8.75
2023-02-14T11:38:06.142Z,8.72
2023-02-14T11:40:38.692Z,8.68
2023-02-14T11:43:14.317Z,8.60
2023-02-14T11:45:47.826Z,8.51
2023-02-14T11:48:37.256Z,8.51
2023-02-14T11:51:15.161Z,8.54
2023-02-14T11:53:47.618Z,8.58
2023-02-14T11:56:20.538Z,8.65
2023-02-14T11:59:00.749Z,8.69
2023-02-14T12:01:35.895Z,8.82
2023-02-14T12:04:17.998Z,8.92
2023-02-14T12:06:45.875Z,8.98
2023-02-14T12:09:22.031Z,9.03
2023-02-14T12:12:14.441Z,9.01
2023-02-14T12:14:41.331Z,9.00
2023-02-14T12:17:35.934Z,8.99
2023-02-14T12:20:21.523Z,8.95
2023-02-14T12:23:02.203Z,8.97
2023-02-14T12:25:45.625Z,8.98
2023-02-14T12:28:19.855Z,9.01
2023-02-14T12:30:46.833Z,9.07
2023-02-14T12:33:22.079Z,9.11
2023-02-14T12:36:12.450Z,9.17
2023-02-14T12:39:10.341Z,9.23
2023-02-14T12:41:59.961Z,9.30
2023-02-14T12:45:12.544Z,9.37
2023-02-14T12:48:07.706Z,9.45
2023-02-14T12:51:13.885Z,9.50
2023-02-14T12:53:55.623Z,9.50
2023-02-14T12:56:28.410Z,9.46
2023-02-14T12:59:42.774Z,9.38
2023-02-14T13:02:33.589Z,9.34
2023-02-14T13:05:13.026Z,9.32
2023-02-14T13:08:14.848Z,9.31
2023-02-14T13:10:52.202Z,9.29
2023-02-14T13:14:03.661Z,9.18
2023-02-14T13:16:57.250Z,9.05
2023-02-14T13:20:04.732Z,8.98
2023-02-14T13:22:34.262Z,8.98
2023-02-14T13:25:10.227Z,8.96
2023-02-14T13:27:40.020Z,8.89
2023-02-14T13:30:27.713Z,8.88
2023-02-14T13:32:59.195Z,8.91
2023-02-14T13:35:29.442Z,8.90
2023-02-14T13:38:02.910Z,8.87
2023-02-14T13:40:32.443Z,8.79
2023-02-14T13:43:02.239Z,8.70
2023-02-14T13:45:32.615Z,8.74
2023-02-14T13:48:12.350Z,8.84
2023-02-14T13:51:06.763Z,8.89
2023-02-14T13:53:52.853Z,8.94
2023-02-14T13:56:47.242Z,8.92
2023-02-14T13:59:57.706Z,8.79
2023-02-14T14:03:21.422Z,8.68
2023-02-14T14:06:08.078Z,8.66
2023-02-14T14:08:50.956Z,8.51
2023-02-14T14:11:52.922Z,8.36
2023-02-14T14:14:48.360Z,8.24
2023-02-14T14:17:37.902Z,8.18
2023-02-14T14:20:29.659Z,8.12
2023-02-14T14:23:05.194Z,8.07
2023-02-14T14:25:44.475Z,8.00
2023-02-14T14:28:30.782Z,7.97
2023-02-14T14:31:05.297Z,7.96
2023-02-14T14:33:41.117Z,8.02
2023-02-14T14:36:12.114Z,8.10
2023-02-14T14:39:06.057Z,8.14
2023-02-14T14:41:52.141Z,8.17
2023-02-14T14:44:37.355Z,8.13
2023-02-14T14:47:44.427Z,8.03
2023-02-14T14:51:04.051Z,7.94
2023-02-14T14:54:11.198Z,7.91
2023-02-14T14:57:08.249Z,7.85
2023-02-14T14:59:41.427Z,7.82
2023-02-14T15:02:32.581Z,7.76
2023-02-14T15:05:42.850Z,7.71
2023-02-14T15:08:33.705Z,7.64
2023-02-14T15:11:37.090Z,7.62
2023-02-14T15:14:11.782Z,7.65
2023-02-14T15:16:51.010Z,7.69
2023-02-14T15:19:52.803Z,7.69
2023-02-14T15:22:34.828Z,7.61
2023-02-14T15:25:14.243Z,7.51
2023-02-14T15:27:44.572Z,7.44
2023-02-14T15:30:41.061Z,7.38
2023-02-14T15:33:20.943Z,7.39
2023-02-14T15:35:51.748Z,7.39
2023-02-14T15:38:27.599Z,7.36
2023-02-14T15:41:01.714Z,7.29
2023-02-14T15:43:34.724Z,7.24
2023-02-14T15:46:31.922Z,7.22
2023-02-14T15:49:08.718Z,7.22
2023-02-14T15:51:46.974Z,7.22
2023-02-14T15:54:47.458Z,7.16
2023-02-14T15:57:33.652Z,7.15
2023-02-14T16:00:49.921Z,7.14
2023-02-14T16:04:02.107Z,7.16
2023-02-14T16:07:23.005Z,7.18
2023-02-14T16:10:15.970Z,7.18
2023-02-14T16:13:06.734Z,7.10
2023-02-14T16:15:43.581Z,7.06
2023-02-14T16:18:48.448Z,7.02
2023-02-14T16:21:41.041Z,6.99
2023-02-14T16:24:26.501Z,6.97
2023-02-14T16:27:07.291Z,6.96
2023-02-14T16:29:44.555Z,6.91
2023-02-14T16:33:03.298Z,6.88
2023-02-14T16:36:18.480Z,6.85
2023-02-14T16:44:55.040Z,6.83
2023-02-14T16:47:35.399Z,6.82
2023-02-14T16:50:27.512Z,6.79
2023-02-14T16:53:01.903Z,6.80
2023-02-14T16:55:53.216Z,6.79
2023-02-14T16:58:46.991Z,6.78
2023-02-14T17:01:29.386Z,6.79
2023-02-14T17:04:11.658Z,6.81
2023-02-14T17:07:18.448Z,6.78
2023-02-14T17:10:25.395Z,6.73
2023-02-14T17:13:08.302Z,6.71
2023-02-14T17:15:45.377Z,6.66
2023-02-14T17:18:23.792Z,6.65
2023-02-14T17:21:04.301Z,6.63
2023-02-14T17:23:57.602Z,6.64
2023-02-14T17:29:45.318Z,6.65
2023-02-14T17:32:26.327Z,6.62
2023-02-14T17:35:05.011Z,6.59
2023-02-14T17:38:23.313Z,6.61
2023-02-14T17:41:23.337Z,6.66
2023-02-14T17:44:36.877Z,6.70
2023-02-14T17:47:27.219Z,6.73
2023-02-14T17:50:24.189Z,6.70
2023-02-14T17:53:13.641Z,6.58
2023-02-14T17:55:55.777Z,6.56
2023-02-14T17:58:44.659Z,6.52
2023-02-14T18:01:37.668Z,6.51
2023-02-14T18:04:21.929Z,6.50
2023-02-14T18:07:00.424Z,6.51
2023-02-14T18:09:33.833Z,6.53
2023-02-14T18:12:33.041Z,6.53
2023-02-14T18:15:15.694Z,6.52
2023-02-14T18:17:50.569Z,6.51
2023-02-14T18:20:37.184Z,6.52
2023-02-14T18:23:50.058Z,6.55
2023-02-14T18:26:33.147Z,6.59
2023-02-14T18:29:09.033Z,6.60
2023-02-14T18:32:16.941Z,6.63
2023-02-14T18:35:15.016Z,6.60
2023-02-14T18:37:52.035Z,6.50
2023-02-14T18:40:31.735Z,6.42
2023-02-14T18:43:12.313Z,6.39
2023-02-14T18:46:04.800Z,6.38
2023-02-14T18:49:19.380Z,6.33
2023-02-14T18:52:06.650Z,6.27
2023-02-14T18:54:42.945Z,6.21
2023-02-14T18:57:37.871Z,6.20
2023-02-14T19:00:16.105Z,6.21
2023-02-14T19:02:50.318Z,6.21
2023-02-14T19:05:29.502Z,6.21
2023-02-14T19:08:15.593Z,6.19
2023-02-14T19:10:46.616Z,6.21
2023-02-14T19:13:24.008Z,6.26
2023-02-14T19:15:55.689Z,6.27
2023-02-14T19:18:27.958Z,6.26
2023-02-14T19:20:58.800Z,6.22
2023-02-14T19:23:26.483Z,6.20
2023-02-14T19:26:00.194Z,6.17
2023-02-14T19:28:44.788Z,6.14
2023-02-14T19:31:37.783Z,6.10
2023-02-14T19:34:31.924Z,6.08
2023-02-14T19:37:16.478Z,6.07
2023-02-14T19:39:59.132Z,6.06
2023-02-14T19:43:01.990Z,6.08
2023-02-14T19:45:41.443Z,6.14
2023-02-14T19:49:00.858Z,6.18
2023-02-14T19:56:18.950Z,6.17
2023-02-14T19:58:48.113Z,6.14
2023-02-14T20:01:36.366Z,6.14
2023-02-14T20:04:05.732Z,6.15
2023-02-14T20:06:32.702Z,6.14
2023-02-14T20:08:59.586Z,6.14
2023-02-14T20:11:52.317Z,6.15
2023-02-14T20:14:29.403Z,6.15
2023-02-14T20:17:00.183Z,6.11
2023-02-14T20:19:32.606Z,6.06
2023-02-14T20:22:00.110Z,6.03
2023-02-14T20:24:31.300Z,6.00
2023-02-14T20:27:00.341Z,6.00
2023-02-14T20:29:27.917Z,5.95
2023-02-14T20:32:03.434Z,5.91
2023-02-14T20:34:30.784Z,5.86
2023-02-14T20:36:59.189Z,5.82
2023-02-14T20:39:33.267Z,5.79
2023-02-14T20:42:01.282Z,5.75
2023-02-14T20:44:28.579Z,5.71
2023-02-14T20:46:57.185Z,5.71
2023-02-14T20:49:26.941Z,5.70
2023-02-14T20:51:54.543Z,5.73
2023-02-14T20:54:24.425Z,5.73
2023-02-14T20:56:52.817Z,5.70
2023-02-14T20:59:26.269Z,5.66
2023-02-14T21:01:58.666Z,5.66
2023-02-14T21:04:26.211Z,5.66
2023-02-14T21:06:53.399Z,5.64
2023-02-14T21:09:20.800Z,5.61
2023-02-14T21:11:47.786Z,5.60
2023-02-14T21:14:17.281Z,5.59
2023-02-14T21:16:44.235Z,5.60
2023-02-14T21:19:11.104Z,5.56
2023-02-14T21:21:38.572Z,5.52
2023-02-14T21:24:13.052Z,5.48
2023-02-14T21:26:40.307Z,5.49
2023-02-14T21:29:08.060Z,5.51
2023-02-14T21:31:36.237Z,5.51
2023-02-14T21:34:04.839Z,5.52
2023-02-14T21:36:35.567Z,5.50
2023-02-14T21:39:05.790Z,5.51
2023-02-14T21:41:33.676Z,5.50
2023-02-14T21:44:02.303Z,5.50
2023-02-14T21:46:33.455Z,5.44
2023-02-14T21:49:21.960Z,5.43
2023-02-14T21:51:49.145Z,5.37
2023-02-14T21:54:16.814Z,5.31
2023-02-14T21:56:43.991Z,5.30
2023-02-14T21:59:11.983Z,5.30
2023-02-14T22:01:41.800Z,5.34
2023-02-14T22:04:12.239Z,5.36
2023-02-14T22:06:41.646Z,5.38
2023-02-14T22:09:10.839Z,5.37
2023-02-14T22:11:37.717Z,5.32
2023-02-14T22:14:04.936Z,5.26
2023-02-14T22:16:31.969Z,5.16
2023-02-14T22:18:58.937Z,5.06
2023-02-14T22:21:27.094Z,4.95
2023-02-14T22:23:55.536Z,4.81
2023-02-14T22:26:29.009Z,4.69
2023-02-14T22:29:01.096Z,4.57
2023-02-14T22:31:33.956Z,4.46
2023-02-14T22:34:00.976Z,4.37
2023-02-14T22:36:27.935Z,4.30
2023-02-14T22:38:54.840Z,4.22
2023-02-14T22:41:24.387Z,4.16
2023-02-14T22:43:53.280Z,4.10
2023-02-14T22:46:26.984Z,4.04
2023-02-14T22:48:56.101Z,3.99
2023-02-14T22:51:30.019Z,3.97
2023-02-14T22:54:04.586Z,3.98
2023-02-14T22:56:34.899Z,4.04
2023-02-14T22:59:07.937Z,4.07
2023-02-14T23:01:35.883Z,4.11
2023-02-14T23:04:04.633Z,4.15
2023-02-14T23:06:35.015Z,4.19
2023-02-14T23:09:04.814Z,4.22
2023-02-14T23:11:34.587Z,4.24
2023-02-14T23:14:20.696Z,4.27
2023-02-14T23:17:06.579Z,4.30
2023-02-14T23:19:54.436Z,4.31
2023-02-14T23:22:41.095Z,4.31
2023-02-14T23:25:11.543Z,4.27
2023-02-14T23:27:45.663Z,4.19
2023-02-14T23:30:17.245Z,4.11
2023-02-14T23:32:44.509Z,4.01
2023-02-14T23:35:11.525Z,3.94
2023-02-14T23:37:38.613Z,3.88
2023-02-14T23:40:07.010Z,3.84
2023-02-14T23:42:33.905Z,3.81
2023-02-14T23:45:21.045Z,3.78
2023-02-14T23:47:48.131Z,3.72
2023-02-14T23:50:15.576Z,3.65
2023-02-14T23:52:44.448Z,3.59
2023-02-14T23:55:11.760Z,3.52
2023-02-14T23:57:38.696Z,3.48
